KHTH

Details ICAO KHTH
Name HAWTHORNE INDUSTRIAL
Region United States
Timezone America/Los_Angeles (UTC-8.0)
Plans Departing 1
Arriving 1
Stats Elevation 4,215 ft / 1,285 m (AMSL)
Location 38.545546° -118.631240°
Runways 3
Magnetic Variation 12.969° E
Sunrise 2017-12-12 15:04:27 UTC / 2017-12-12 07:04:27 Local
Sunset 2017-12-13 00:35:14 UTC / 2017-12-12 16:35:14 Local
Advertisement - Login to hide

Runways

ID Width Length Bearing (true) Bearing (mag) Surface Threshold Offset Overrun Length
05 160 ft / 49 m 2,810 ft / 857 m 68.93° 55.96° Dirt 0 ft / 0 m 0 ft / 0 m
10 100 ft / 30 m 5,995 ft / 1,827 m 116.09° 103.12° Asphalt 0 ft / 0 m 300 ft / 91 m
15 130 ft / 40 m 3,505 ft / 1,068 m 164.05° 151.08° Dirt 0 ft / 0 m 0 ft / 0 m
23 160 ft / 49 m 2,810 ft / 857 m 248.93° 235.96° Dirt 0 ft / 0 m 0 ft / 0 m
28 100 ft / 30 m 5,995 ft / 1,827 m 296.10° 283.13° Asphalt 0 ft / 0 m 600 ft / 183 m
33 130 ft / 40 m 3,505 ft / 1,068 m 344.05° 331.08° Dirt 0 ft / 0 m 0 ft / 0 m

Map

Weather


0- 5 10 15 20 25 30 35+ Temperature / ° C

Clouds and Precipitation
Forecast for 2017-12-12 18:00 UTC. Updated 43 minutes ago

Ground ~20,000 ft ~40,000 ft Winds

METAR

KHTH 121355Z AUTO 00000KT 7SM CLR M09/M11 A3056 RMK A01

TAF

Not found

Frequencies

Unicom 122.80 MHz CTAF/UNICOM
Warning: Do not use this data for real-world aviation or navigation. No guarantee of current accuracy is given.